메인 페이지
METAR-TAF:

METAR-TAF

공항 :

리가 국제공항

리가, 라트비아

위도: 56-55N, 경도: 023-58E, 고도: 10m

현재 날씨관측

예보는 8분 전, 03:20시(UTC)에 발표되었습니다.
무풍
온도 14°C
습도 100%
기압 1020 hPa
시정 10km 이상
1500m 미만 상공 구름 및 적란운 없음

METAR: EVRA 170320Z 00000KT CAVOK 14/14 Q1020 NOSIG

시각: 06:28 (03:28 UTC)

예보

예보는 1 시간 28분 전, 02:00시(UTC)에 발표되었습니다.
예보 대상 시간: 17일 03시부터 18일 03시까지 (UTC)
여러 방향의 바람 2kt
시정 10km 이상
고도 3000ft 상공 구름 보통
일시적
17일 03시부터 17일 05시까지 (UTC)
시정: 0700m
고도 200ft 상공 구름 많음
안개
전환 중
17일 06시부터 17일 08시까지 (UTC)
남남동7kt

TAF: EVRA 170200Z 1703/1803 VRB02KT 9999 SCT030 TEMPO 1703/1705 0700 FG BKN002 BECMG 1706/1708 15007KT

4,000개 이상의 공항 관측 자료 및 예보 (METAR 및 TAF 보고).

지도상에서 검색 가능한 기상관측소가 노란 점과 빨간 점으로 표시되어 있습니다.

기상관측소 명을 보려면 표시 위로 마우스를 이동하세요.

날씨 관측과 예보를 보려면 클릭하세요.

지도 변경 : 확대하려면 엑스 표시가 있는 녹색 버튼, 축소하려면 빼기 표시가 있는 녹색 버튼, 다음 페이지의 지도를 보려면 녹색 화살표를 클릭하세요.


METAR-TAF: